createdAt,value
2019-01-17T00:01:03.255Z,99.90
2019-01-17T00:03:54.319Z,99.90
2019-01-17T00:06:48.940Z,99.90
2019-01-17T00:09:26.580Z,99.90
2019-01-17T00:12:07.065Z,99.90
2019-01-17T00:14:56.453Z,99.90
2019-01-17T00:17:54.211Z,99.90
2019-01-17T00:20:55.024Z,99.90
2019-01-17T00:23:42.238Z,99.90
2019-01-17T00:26:29.591Z,99.90
2019-01-17T00:29:17.035Z,99.90
2019-01-17T00:32:05.719Z,99.90
2019-01-17T00:35:00.177Z,99.90
2019-01-17T00:37:45.037Z,99.90
2019-01-17T00:40:31.782Z,99.90
2019-01-17T00:43:15.442Z,99.90
2019-01-17T00:46:10.594Z,99.90
2019-01-17T00:48:57.649Z,99.90
2019-01-17T00:52:01.298Z,99.90
2019-01-17T00:54:48.522Z,99.90
2019-01-17T00:57:42.808Z,99.90
2019-01-17T01:00:48.448Z,99.90
2019-01-17T01:03:48.911Z,99.90
2019-01-17T01:06:40.082Z,99.90
2019-01-17T01:09:25.971Z,99.90
2019-01-17T01:12:12.955Z,99.90
2019-01-17T01:15:07.405Z,99.90
2019-01-17T01:17:49.795Z,99.90
2019-01-17T01:20:36.761Z,99.90
2019-01-17T01:23:31.322Z,99.90
2019-01-17T01:26:19.768Z,99.90
2019-01-17T01:29:08.420Z,99.90
2019-01-17T01:32:08.708Z,99.90
2019-01-17T01:35:02.022Z,99.90
2019-01-17T01:37:49.387Z,99.90
2019-01-17T01:40:29.183Z,99.90
2019-01-17T01:43:17.939Z,99.90
2019-01-17T01:46:05.772Z,99.90
2019-01-17T01:48:54.253Z,99.90
2019-01-17T01:51:48.887Z,99.90
2019-01-17T01:54:22.012Z,99.90
2019-01-17T01:56:49.701Z,99.90
2019-01-17T01:59:19.301Z,99.90
2019-01-17T02:01:49.043Z,99.90
2019-01-17T02:04:18.799Z,99.90
2019-01-17T02:06:48.553Z,99.90
2019-01-17T02:09:18.311Z,99.90
2019-01-17T02:11:47.887Z,99.90
2019-01-17T02:14:18.401Z,99.90
2019-01-17T02:16:48.207Z,99.90
2019-01-17T02:19:17.961Z,99.90
2019-01-17T02:21:47.650Z,99.90
2019-01-17T02:24:17.342Z,99.90
2019-01-17T02:26:46.815Z,99.90
2019-01-17T02:29:16.336Z,99.90
2019-01-17T02:31:45.890Z,99.90
2019-01-17T02:34:15.421Z,99.90
2019-01-17T02:36:45.006Z,99.90
2019-01-17T02:39:14.591Z,99.90
2019-01-17T02:41:44.108Z,99.90
2019-01-17T02:44:13.603Z,99.90
2019-01-17T02:46:43.135Z,99.90
2019-01-17T02:49:12.754Z,99.90
2019-01-17T02:51:42.491Z,99.90
2019-01-17T02:54:12.321Z,99.90
2019-01-17T02:56:42.087Z,99.90
2019-01-17T02:59:12.190Z,99.90
2019-01-17T03:01:41.826Z,99.90
2019-01-17T03:04:11.528Z,99.90
2019-01-17T03:06:41.294Z,99.90
2019-01-17T03:09:10.999Z,99.90
2019-01-17T03:11:40.814Z,99.90
2019-01-17T03:14:10.273Z,99.90
2019-01-17T03:16:39.936Z,99.90
2019-01-17T03:19:09.742Z,99.90
2019-01-17T03:21:39.463Z,99.90
2019-01-17T03:24:09.008Z,99.90
2019-01-17T03:26:38.491Z,99.90
2019-01-17T03:29:08.178Z,99.90
2019-01-17T03:31:37.838Z,99.90
2019-01-17T03:34:07.464Z,99.90
2019-01-17T03:36:36.896Z,99.90
2019-01-17T03:39:08.429Z,99.90
2019-01-17T03:41:37.967Z,99.90
2019-01-17T03:44:07.592Z,99.90
2019-01-17T03:46:37.115Z,99.90
2019-01-17T03:49:06.570Z,99.90
2019-01-17T03:51:36.038Z,99.90
2019-01-17T03:54:05.636Z,99.90
2019-01-17T03:56:35.176Z,99.90
2019-01-17T03:59:04.586Z,99.90
2019-01-17T04:01:34.018Z,99.90
2019-01-17T04:04:03.781Z,99.90
2019-01-17T04:06:33.475Z,99.90
2019-01-17T04:09:03.728Z,99.90
2019-01-17T04:11:33.520Z,99.90
2019-01-17T04:14:03.292Z,99.90
2019-01-17T04:16:33.090Z,99.90
2019-01-17T04:19:02.944Z,99.90
2019-01-17T04:21:32.504Z,99.90
2019-01-17T04:24:02.109Z,99.90
2019-01-17T04:26:32.029Z,99.90
2019-01-17T04:29:01.841Z,99.90
2019-01-17T04:31:31.567Z,99.90
2019-01-17T04:34:01.315Z,99.90
2019-01-17T04:36:30.794Z,99.90
2019-01-17T04:39:00.335Z,99.90
2019-01-17T04:41:29.857Z,99.90
2019-01-17T04:43:59.571Z,99.90
2019-01-17T04:46:29.005Z,99.90
2019-01-17T04:53:25.698Z,99.90
2019-01-17T04:55:55.543Z,99.90
2019-01-17T04:58:25.355Z,99.90
2019-01-17T05:00:55.180Z,99.90
2019-01-17T05:03:24.984Z,99.90
2019-01-17T05:05:54.655Z,99.90
2019-01-17T05:08:24.301Z,99.90
2019-01-17T05:10:54.077Z,99.90
2019-01-17T05:13:23.893Z,99.90
2019-01-17T05:15:53.539Z,99.90
2019-01-17T05:18:23.306Z,99.90
2019-01-17T05:20:53.100Z,99.90
2019-01-17T05:23:24.666Z,99.90
2019-01-17T05:25:54.354Z,99.90
2019-01-17T05:28:23.877Z,99.90
2019-01-17T05:30:53.535Z,99.90
2019-01-17T05:33:23.153Z,99.90
2019-01-17T05:35:52.556Z,99.90
2019-01-17T05:38:22.289Z,99.90
2019-01-17T05:40:52.120Z,99.90
2019-01-17T05:43:35.809Z,99.90
2019-01-17T05:46:05.580Z,99.90
2019-01-17T05:48:35.094Z,99.90
2019-01-17T05:51:04.856Z,99.90
2019-01-17T05:53:34.466Z,99.90
2019-01-17T05:56:04.051Z,99.90
2019-01-17T05:58:33.884Z,99.90
2019-01-17T06:01:03.617Z,99.90
2019-01-17T06:03:33.232Z,99.90
2019-01-17T06:06:03.076Z,99.90
2019-01-17T06:08:32.896Z,99.90
2019-01-17T06:11:02.491Z,99.90
2019-01-17T06:13:32.046Z,99.90
2019-01-17T06:16:02.436Z,99.90
2019-01-17T06:18:32.221Z,99.90
2019-01-17T06:21:01.992Z,99.90
2019-01-17T06:23:31.661Z,99.90
2019-01-17T06:26:01.170Z,99.90
2019-01-17T06:28:30.628Z,99.90
2019-01-17T06:31:00.110Z,99.90
2019-01-17T06:33:29.669Z,99.90
2019-01-17T06:35:59.483Z,99.90
2019-01-17T06:38:37.212Z,99.90
2019-01-17T06:41:09.792Z,99.90
2019-01-17T06:43:39.229Z,99.90
2019-01-17T06:46:09.217Z,99.90
2019-01-17T06:48:38.743Z,99.90
2019-01-17T06:51:08.325Z,99.90
2019-01-17T06:53:37.772Z,99.90
2019-01-17T06:56:07.339Z,99.90
2019-01-17T06:58:37.787Z,99.90
2019-01-17T07:01:07.238Z,99.90
2019-01-17T07:03:36.740Z,99.90
2019-01-17T07:06:06.246Z,99.90
2019-01-17T07:08:36.224Z,99.90
2019-01-17T07:11:05.853Z,99.90
2019-01-17T07:13:35.252Z,99.90
2019-01-17T07:16:04.732Z,99.90
2019-01-17T07:18:34.224Z,99.90
2019-01-17T07:21:03.644Z,99.90
2019-01-17T07:23:33.255Z,99.90
2019-01-17T07:26:02.801Z,99.90
2019-01-17T07:28:32.484Z,99.90
2019-01-17T07:31:01.893Z,99.90
2019-01-17T07:33:31.372Z,99.90
2019-01-17T07:36:01.065Z,99.90
2019-01-17T07:38:30.598Z,99.90
2019-01-17T07:41:00.052Z,99.90
2019-01-17T07:43:29.616Z,99.90
2019-01-17T07:45:59.191Z,99.90
2019-01-17T07:48:28.691Z,99.90
2019-01-17T07:50:58.187Z,99.90
2019-01-17T07:53:27.579Z,99.90
2019-01-17T07:55:56.970Z,99.90
2019-01-17T07:58:26.455Z,99.90
2019-01-17T08:00:56.012Z,99.90
2019-01-17T08:03:25.607Z,99.90
2019-01-17T08:05:55.046Z,99.90
2019-01-17T08:08:24.552Z,99.90
2019-01-17T08:10:54.097Z,99.90
2019-01-17T08:13:23.625Z,99.90
2019-01-17T08:15:53.122Z,99.90
2019-01-17T08:18:22.612Z,99.90
2019-01-17T08:20:52.195Z,99.90
2019-01-17T08:23:21.813Z,99.90
2019-01-17T08:25:54.292Z,99.90
2019-01-17T08:28:22.481Z,99.90
2019-01-17T08:30:52.478Z,99.90
2019-01-17T08:33:22.080Z,99.90
2019-01-17T08:35:51.814Z,99.90
2019-01-17T08:38:21.353Z,99.90
2019-01-17T08:40:50.981Z,99.90
2019-01-17T08:43:20.346Z,99.90
2019-01-17T08:45:49.806Z,99.90
2019-01-17T08:48:19.422Z,99.90
2019-01-17T08:50:48.890Z,99.90
2019-01-17T08:53:18.576Z,99.90
2019-01-17T08:55:48.207Z,99.90
2019-01-17T08:58:17.651Z,99.90
2019-01-17T09:00:47.178Z,99.90
2019-01-17T09:03:16.697Z,99.90
2019-01-17T09:05:46.123Z,99.90
2019-01-17T09:08:15.667Z,99.90
2019-01-17T09:10:45.132Z,99.90
2019-01-17T09:13:14.591Z,99.90
2019-01-17T09:15:44.256Z,99.90
2019-01-17T09:18:14.094Z,99.90
2019-01-17T09:20:43.467Z,99.90
2019-01-17T09:23:13.353Z,99.90
2019-01-17T09:25:42.848Z,99.90
2019-01-17T09:28:12.435Z,99.90
2019-01-17T09:30:41.925Z,99.90
2019-01-17T09:33:11.304Z,99.90
2019-01-17T09:35:40.661Z,99.90
2019-01-17T09:38:10.069Z,99.90
2019-01-17T09:40:39.536Z,99.90
2019-01-17T09:43:08.972Z,99.90
2019-01-17T09:45:38.478Z,99.90
2019-01-17T09:48:07.866Z,99.90
2019-01-17T09:50:37.352Z,99.90
2019-01-17T09:53:06.962Z,99.90
2019-01-17T09:55:36.400Z,99.90
2019-01-17T09:58:05.849Z,99.90
2019-01-17T10:00:35.346Z,99.90
2019-01-17T10:03:04.750Z,99.90
2019-01-17T10:05:34.307Z,99.90
2019-01-17T10:08:04.262Z,99.90
2019-01-17T10:10:33.693Z,99.90
2019-01-17T10:13:03.270Z,99.90
2019-01-17T10:15:41.254Z,99.90
2019-01-17T10:18:50.421Z,99.90
2019-01-17T10:21:58.721Z,99.90
2019-01-17T10:25:13.258Z,99.90
2019-01-17T10:28:23.887Z,99.90
2019-01-17T10:31:27.751Z,99.90
2019-01-17T10:34:38.223Z,99.90
2019-01-17T10:37:38.374Z,99.90
2019-01-17T10:40:49.329Z,99.90
2019-01-17T10:44:04.715Z,99.90
2019-01-17T10:47:33.628Z,99.90
2019-01-17T10:50:38.231Z,99.90
2019-01-17T10:53:53.307Z,99.90
2019-01-17T10:56:41.587Z,99.90
2019-01-17T10:59:38.647Z,99.90
2019-01-17T11:02:36.579Z,99.90
2019-01-17T11:05:49.860Z,99.90
2019-01-17T11:09:25.162Z,99.90
2019-01-17T11:12:24.318Z,99.90
2019-01-17T11:15:17.518Z,99.90
2019-01-17T11:18:42.093Z,99.90
2019-01-17T11:21:54.293Z,99.90
2019-01-17T11:24:58.671Z,99.90
2019-01-17T11:28:03.783Z,99.90
2019-01-17T11:30:58.730Z,99.90
2019-01-17T11:33:56.367Z,99.90
2019-01-17T11:37:07.506Z,99.90
2019-01-17T11:40:03.984Z,99.90
2019-01-17T11:43:00.805Z,99.90
2019-01-17T11:45:49.501Z,99.90
2019-01-17T11:48:53.349Z,99.90
2019-01-17T11:51:41.328Z,99.90
2019-01-17T11:55:01.925Z,99.90
2019-01-17T11:58:09.922Z,99.90
2019-01-17T12:01:44.726Z,99.90
2019-01-17T12:04:44.698Z,99.90
2019-01-17T12:07:16.578Z,99.90
2019-01-17T12:09:46.065Z,99.90
2019-01-17T12:12:23.341Z,99.90
2019-01-17T12:14:55.518Z,99.90
2019-01-17T12:17:25.128Z,99.90
2019-01-17T12:19:54.561Z,99.90
2019-01-17T12:22:24.727Z,99.90
2019-01-17T12:24:54.659Z,99.90
2019-01-17T12:27:24.216Z,99.90
2019-01-17T12:29:53.774Z,99.90
2019-01-17T12:32:23.256Z,99.90
2019-01-17T12:34:52.712Z,99.90
2019-01-17T12:37:22.220Z,99.90
2019-01-17T12:39:51.809Z,99.90
2019-01-17T12:42:21.607Z,99.90
2019-01-17T12:44:51.202Z,99.90
2019-01-17T12:51:44.652Z,99.90
2019-01-17T12:54:14.139Z,99.90
2019-01-17T12:56:43.712Z,99.90
2019-01-17T12:59:13.326Z,99.90
2019-01-17T13:01:45.905Z,99.90
2019-01-17T13:04:15.410Z,99.90
2019-01-17T13:06:44.804Z,99.90
2019-01-17T13:09:14.282Z,99.90
2019-01-17T13:11:43.736Z,99.90
2019-01-17T13:14:13.425Z,99.90
2019-01-17T13:16:42.945Z,99.90
2019-01-17T13:22:21.358Z,99.90
2019-01-17T13:24:50.882Z,99.90
2019-01-17T13:27:20.441Z,99.90
2019-01-17T13:29:49.930Z,99.90
2019-01-17T13:39:09.925Z,99.90
2019-01-17T13:41:39.421Z,99.80
2019-01-17T13:44:08.853Z,99.90
2019-01-17T13:46:38.490Z,99.90
2019-01-17T13:49:07.955Z,99.70
2019-01-17T13:51:37.431Z,99.90
2019-01-17T13:54:07.059Z,99.90
2019-01-17T13:56:36.595Z,99.90
2019-01-17T13:59:06.017Z,99.90
2019-01-17T14:01:35.566Z,99.90
2019-01-17T14:04:05.360Z,99.90
2019-01-17T14:06:35.009Z,99.90
2019-01-17T14:09:08.145Z,99.90
2019-01-17T14:11:37.777Z,99.80
2019-01-17T14:14:07.383Z,99.60
2019-01-17T14:16:36.895Z,99.50
2019-01-17T14:19:06.779Z,99.30
2019-01-17T14:21:36.219Z,99.20
2019-01-17T14:24:05.613Z,99.10
2019-01-17T14:26:35.073Z,99.10
2019-01-17T14:29:04.581Z,99.50
2019-01-17T14:31:34.213Z,99.30
2019-01-17T14:34:06.902Z,99.30
2019-01-17T14:36:36.376Z,99.30
2019-01-17T14:39:06.945Z,99.40
2019-01-17T14:41:36.566Z,99.40
2019-01-17T14:44:06.121Z,99.20
2019-01-17T14:46:35.747Z,99.40
2019-01-17T14:49:05.170Z,99.40
2019-01-17T14:51:34.636Z,99.40
2019-01-17T14:54:04.238Z,99.30
2019-01-17T14:56:33.872Z,99.30
2019-01-17T14:59:03.496Z,99.10
2019-01-17T15:01:33.114Z,99.10
2019-01-17T15:04:02.545Z,99.10
2019-01-17T15:06:31.906Z,99.10
2019-01-17T15:09:01.474Z,99.10
2019-01-17T15:11:30.974Z,98.90
2019-01-17T15:14:00.394Z,98.70
2019-01-17T15:16:29.960Z,98.50
2019-01-17T15:18:59.441Z,98.60
2019-01-17T15:21:29.620Z,98.70
2019-01-17T15:23:59.473Z,98.80
2019-01-17T15:26:29.031Z,98.70
2019-01-17T15:28:58.732Z,98.70
2019-01-17T15:31:28.458Z,98.50
2019-01-17T15:33:58.013Z,98.50
2019-01-17T15:36:27.471Z,98.30
2019-01-17T15:38:57.142Z,98.40
2019-01-17T15:41:30.171Z,98.60
2019-01-17T15:43:59.748Z,98.70
2019-01-17T15:46:29.453Z,98.80
2019-01-17T15:48:59.026Z,98.70
2019-01-17T15:51:28.464Z,98.70
2019-01-17T15:53:58.056Z,98.90
2019-01-17T15:56:27.614Z,98.90
2019-01-17T15:59:04.654Z,98.90
2019-01-17T16:01:34.215Z,99.00
2019-01-17T16:07:12.383Z,99.30
2019-01-17T16:09:42.573Z,99.20
2019-01-17T16:12:12.365Z,99.30
2019-01-17T16:14:42.253Z,99.30
2019-01-17T16:17:11.789Z,99.40
2019-01-17T16:19:41.491Z,99.40
2019-01-17T16:22:11.199Z,99.60
2019-01-17T16:24:40.877Z,99.90
2019-01-17T16:27:10.461Z,99.90
2019-01-17T16:29:39.884Z,99.90
2019-01-17T16:32:09.259Z,99.90
2019-01-17T16:34:38.702Z,99.90
2019-01-17T16:37:08.168Z,99.90
2019-01-17T16:39:37.583Z,99.90
2019-01-17T16:42:07.028Z,99.90
2019-01-17T16:44:36.505Z,99.90
2019-01-17T16:47:05.987Z,99.90
2019-01-17T16:49:35.505Z,99.90
2019-01-17T16:52:05.251Z,99.90
2019-01-17T16:54:34.754Z,99.90
2019-01-17T16:57:04.263Z,99.90
2019-01-17T16:59:33.726Z,99.90
2019-01-17T17:02:03.484Z,99.90
2019-01-17T17:04:32.876Z,99.90
2019-01-17T17:07:02.445Z,99.90
2019-01-17T17:09:32.218Z,99.90
2019-01-17T17:12:01.721Z,99.90
2019-01-17T17:14:31.291Z,99.90
2019-01-17T17:17:00.810Z,99.90
2019-01-17T17:19:30.389Z,99.90
2019-01-17T17:22:00.158Z,99.90
2019-01-17T17:24:29.807Z,99.90
2019-01-17T17:26:59.349Z,99.90
2019-01-17T17:29:28.943Z,99.90
2019-01-17T17:31:58.458Z,99.90
2019-01-17T17:38:09.545Z,99.90
2019-01-17T17:40:39.053Z,99.90
2019-01-17T17:43:08.458Z,99.90
2019-01-17T17:45:37.859Z,99.90
2019-01-17T17:52:22.655Z,99.90
2019-01-17T17:54:52.240Z,99.90
2019-01-17T17:57:21.665Z,99.90
2019-01-17T17:59:51.521Z,99.90
2019-01-17T18:02:27.410Z,99.90
2019-01-17T18:04:57.122Z,99.90
2019-01-17T18:07:26.631Z,99.90
2019-01-17T18:09:56.123Z,99.90
2019-01-17T18:12:25.662Z,99.90
2019-01-17T18:14:55.672Z,99.90
2019-01-17T18:17:25.370Z,99.90
2019-01-17T18:19:54.811Z,99.90
2019-01-17T18:22:24.299Z,99.90
2019-01-17T18:24:53.894Z,99.90
2019-01-17T18:27:23.395Z,99.90
2019-01-17T18:29:52.830Z,99.90
2019-01-17T18:32:22.199Z,99.90
2019-01-17T18:38:24.178Z,99.90
2019-01-17T18:40:54.270Z,99.90
2019-01-17T18:43:23.841Z,99.90
2019-01-17T18:45:53.417Z,99.90
2019-01-17T18:48:22.821Z,99.90
2019-01-17T18:50:52.522Z,99.90
2019-01-17T18:53:22.532Z,99.90
2019-01-17T18:55:52.486Z,99.90
2019-01-17T18:58:22.087Z,99.90
2019-01-17T19:00:52.011Z,99.90
2019-01-17T19:03:25.702Z,99.90
2019-01-17T19:05:55.553Z,99.90
2019-01-17T19:08:25.374Z,99.90
2019-01-17T19:10:55.308Z,99.90
2019-01-17T19:13:25.187Z,99.90
2019-01-17T19:15:55.153Z,99.90
2019-01-17T19:18:24.967Z,99.90
2019-01-17T19:20:54.707Z,99.90
2019-01-17T19:23:26.595Z,99.90
2019-01-17T19:25:56.397Z,99.90
2019-01-17T19:28:26.207Z,99.90
2019-01-17T19:30:55.986Z,99.90
2019-01-17T19:33:25.707Z,99.90
2019-01-17T19:35:55.460Z,99.90
2019-01-17T19:38:25.170Z,99.90
2019-01-17T19:40:55.003Z,99.90
2019-01-17T19:43:24.731Z,99.90
2019-01-17T19:45:54.384Z,99.90
2019-01-17T19:48:24.174Z,99.90
2019-01-17T19:50:53.983Z,99.90
2019-01-17T19:53:23.717Z,99.90
2019-01-17T19:55:53.464Z,99.90
2019-01-17T19:58:28.847Z,99.90
2019-01-17T20:00:54.574Z,99.90
2019-01-17T20:03:24.306Z,99.90
2019-01-17T20:05:54.115Z,99.90
2019-01-17T20:08:25.503Z,99.90
2019-01-17T20:10:55.256Z,99.90
2019-01-17T20:13:24.807Z,99.90
2019-01-17T20:15:54.582Z,99.90
2019-01-17T20:18:24.282Z,99.90
2019-01-17T20:20:53.876Z,99.90
2019-01-17T20:23:49.213Z,99.90
2019-01-17T20:26:25.177Z,99.90
2019-01-17T20:28:59.864Z,99.90
2019-01-17T20:31:29.645Z,99.90
2019-01-17T20:33:59.453Z,99.90
2019-01-17T20:36:29.233Z,99.90
2019-01-17T20:38:58.848Z,99.90
2019-01-17T20:41:28.511Z,99.90
2019-01-17T20:43:58.315Z,99.90
2019-01-17T20:46:28.146Z,99.90
2019-01-17T20:49:02.231Z,99.90
2019-01-17T20:51:32.003Z,99.90
2019-01-17T20:54:01.608Z,99.90
2019-01-17T20:56:31.236Z,99.90
2019-01-17T20:59:01.260Z,99.90
2019-01-17T21:02:11.558Z,99.90
2019-01-17T21:04:41.452Z,99.90
2019-01-17T21:07:11.219Z,99.90
2019-01-17T21:09:41.160Z,99.90
2019-01-17T21:12:10.996Z,99.90
2019-01-17T21:14:50.873Z,99.90
2019-01-17T21:17:34.958Z,99.90
2019-01-17T21:20:18.707Z,99.90
2019-01-17T21:22:50.964Z,99.90
2019-01-17T21:25:20.778Z,99.90
2019-01-17T21:27:50.495Z,99.90
2019-01-17T21:30:22.339Z,99.90
2019-01-17T21:32:51.985Z,99.90
2019-01-17T21:35:21.535Z,99.90
2019-01-17T21:37:51.352Z,99.90
2019-01-17T21:40:21.265Z,99.90
2019-01-17T21:42:51.098Z,99.90
2019-01-17T21:45:20.815Z,99.90
2019-01-17T21:47:50.624Z,99.90
2019-01-17T21:50:31.276Z,99.90
2019-01-17T21:53:05.387Z,99.90
2019-01-17T21:55:34.878Z,99.90
2019-01-17T21:58:04.455Z,99.90
2019-01-17T22:00:34.003Z,99.90
2019-01-17T22:03:03.813Z,99.90
2019-01-17T22:05:33.574Z,99.90
2019-01-17T22:08:03.446Z,99.90
2019-01-17T22:10:33.017Z,99.90
2019-01-17T22:13:02.783Z,99.90
2019-01-17T22:15:32.800Z,99.90
2019-01-17T22:18:02.602Z,99.90
2019-01-17T22:20:32.225Z,99.90
2019-01-17T22:23:02.057Z,99.90
2019-01-17T22:25:33.895Z,99.90
2019-01-17T22:28:03.483Z,99.90
2019-01-17T22:30:33.135Z,99.90
2019-01-17T22:33:02.786Z,99.90
2019-01-17T22:35:32.521Z,99.90
2019-01-17T22:38:02.435Z,99.90
2019-01-17T22:40:32.143Z,99.90
2019-01-17T22:43:01.839Z,99.90
2019-01-17T22:45:31.734Z,99.90
2019-01-17T22:48:01.450Z,99.90
2019-01-17T22:50:31.209Z,99.90
2019-01-17T22:53:01.000Z,99.90
2019-01-17T22:55:30.633Z,99.90
2019-01-17T22:58:00.351Z,99.90
2019-01-17T23:00:50.713Z,99.90
2019-01-17T23:03:32.602Z,99.90
2019-01-17T23:06:02.293Z,99.90
2019-01-17T23:08:32.414Z,99.90
2019-01-17T23:11:02.238Z,99.80
2019-01-17T23:13:32.113Z,99.80
2019-01-17T23:16:01.861Z,99.80
2019-01-17T23:23:01.282Z,99.90
2019-01-17T23:25:30.876Z,99.80
2019-01-17T23:28:00.563Z,99.70
2019-01-17T23:30:30.235Z,99.70
2019-01-17T23:32:59.776Z,99.70
2019-01-17T23:35:29.387Z,99.70
2019-01-17T23:37:58.960Z,99.70
2019-01-17T23:40:28.643Z,99.50
2019-01-17T23:42:58.448Z,99.50
2019-01-17T23:45:28.028Z,99.50
2019-01-17T23:47:57.642Z,99.60
2019-01-17T23:50:27.302Z,99.60
2019-01-17T23:52:57.144Z,99.70
2019-01-17T23:55:26.814Z,99.70
2019-01-17T23:57:56.537Z,99.80
